Latest Weather Observations for Friendly Beaches

IDT60801

Issued at 2:35 pm EDT Saturday 25 October 2014 (issued every 30 minutes, with the page automatically refreshed every 10 minutes)

About weather observations | Map of weather stations | Latest weather observations for TAS | Other Formats
Station Details ID: 092114 Name: FRIENDLY BEACHES Lat: -42.00 Lon: 148.28 Height: 55.0 m
Data from the previous 72 hours. | See also: Recent months at Friendly Beaches
Date/Time
EDT
Temp
°C
App
Temp
°C
Dew
Point
Rel
Hum
%
Delta-T
°C
Wind Press
QNH
hPa
Press
MSL
hPa
Rain
since 9 am
mm
Dir
 
Spd
km/h
Gust
km/h
Spd
kts
Gust
kts
25/02:30pm 16.6 12.7 10.9 69 3.1 ESE 22 28 12 15 1016.0 1016.0 0.0
25/02:00pm 17.9 14.6 11.5 66 3.5 SE 20 28 11 15 1016.1 1016.1 0.0
25/01:30pm 18.7 14.6 11.5 63 4.0 SE 24 30 13 16 1015.9 1015.9 0.0
25/01:00pm 19.1 15.5 11.7 62 4.1 SE 22 30 12 16 1015.8 1015.8 0.0
25/12:30pm 18.3 14.7 11.8 66 3.6 ESE 22 28 12 15 1015.8 1015.8 0.0
25/12:00pm 18.2 15.2 12.4 69 3.2 SE 20 26 11 14 1015.9 1015.9 0.0
25/11:30am 18.4 15.3 12.2 67 3.4 SE 20 28 11 15 1015.8 1015.8 0.0
25/11:00am 17.1 14.2 12.4 74 2.6 SE 19 26 10 14 1015.8 1015.8 0.0
25/10:30am 16.7 14.6 12.3 75 2.4 SE 15 24 8 13 1015.5 1015.5 0.0
25/10:00am 16.7 15.3 13.4 81 1.9 SE 13 20 7 11 1015.3 1015.3 0.0
25/09:30am 16.2 14.9 12.6 79 2.0 SE 11 17 6 9 1015.0 1015.0 0.0
25/09:00am 16.4 16.1 13.3 82 1.7 ESE 7 11 4 6 1014.6 1014.6 1.8
25/08:30am 15.1 15.7 13.0 87 1.2 SSW 2 6 1 3 1014.2 1014.2 1.8
25/08:00am 14.2 15.1 12.8 91 0.8 CALM 0 0 0 0 1013.8 1013.8 1.8
25/07:30am 13.4 14.2 12.6 95 0.4 CALM 0 0 0 0 1013.2 1013.2 1.8
25/07:00am 12.7 12.2 11.9 95 0.4 SE 6 9 3 5 1012.8 1012.8 1.8
25/06:30am 12.4 11.8 11.6 95 0.4 SE 6 9 3 5 1012.4 1012.4 1.8
25/06:00am 12.4 12.8 11.3 93 0.6 CALM 0 0 0 0 1012.1 1012.1 1.8
25/05:30am 13.0 12.5 11.9 93 0.6 S 6 9 3 5 1011.5 1011.5 1.8
25/05:00am 13.0 12.3 11.9 93 0.6 SSW 7 13 4 7 1010.9 1010.9 1.8
25/04:30am 13.1 12.3 11.8 92 0.7 SSW 7 13 4 7 1010.3 1010.3 1.8
25/04:00am 13.2 12.1 11.9 92 0.7 W 9 13 5 7 1009.8 1009.8 1.6
25/03:30am 13.3 12.3 12.4 94 0.5 W 9 13 5 7 1009.3 1009.3 1.6
25/03:00am 13.1 12.5 12.3 95 0.4 W 7 9 4 5 1008.9 1008.9 1.6
25/02:30am 13.0 13.3 12.1 94 0.5 WSW 2 6 1 3 1008.7 1008.7 1.6
25/02:00am 13.5 11.1 12.7 95 0.4 W 17 24 9 13 1008.2 1008.2 1.6
25/01:30am 12.9 13.7 12.4 97 0.3 CALM 0 4 0 2 1008.1 1008.1 1.6
25/01:00am 13.0 13.0 12.4 96 0.3 ESE 4 6 2 3 1007.7 1007.7 1.6
25/12:30am 13.3 13.7 12.5 95 0.4 S 2 4 1 2 1007.9 1007.9 1.6
25/12:00am 13.7 14.3 13.1 96 0.3 NW 2 7 1 4 1008.0 1008.0 1.6
 
Date/Time
EDT
Temp
°C
App
Temp
°C
Dew
Point
Rel
Hum
%
Delta-T
°C
Wind Press
QNH
hPa
Press
MSL
hPa
Rain
since 9 am
mm
Dir
 
Spd
km/h
Gust
km/h
Spd
kts
Gust
kts
24/11:30pm 13.8 13.7 13.2 96 0.3 N 6 7 3 4 1008.2 1008.2 1.6
24/11:00pm 13.9 13.6 13.3 96 0.3 NNE 7 9 4 5 1008.5 1008.5 1.6
24/10:30pm 13.9 14.9 13.1 95 0.4 CALM 0 0 0 0 1009.0 1009.0 1.6
24/10:00pm 14.6 15.8 13.8 95 0.4 CALM 0 0 0 0 1009.1 1009.1 1.6
24/09:30pm 14.6 15.8 13.8 95 0.4 CALM 0 0 0 0 1008.9 1008.9 1.6
24/09:00pm 15.1 15.2 14.5 96 0.3 N 7 19 4 10 1009.2 1009.2 1.6
24/08:30pm 14.7 13.9 14.1 96 0.3 N 11 17 6 9 1009.2 1009.2 1.6
24/08:00pm 15.0 14.3 14.4 96 0.3 NNE 11 17 6 9 1009.0 1009.0 1.6
24/07:30pm 15.2 15.0 14.6 96 0.3 N 9 17 5 9 1009.9 1009.9 1.6
24/07:00pm 15.1 15.2 14.5 96 0.3 N 7 20 4 11 1010.0 1010.0 1.4
24/06:30pm 15.0 13.2 14.4 96 0.3 N 17 26 9 14 1009.6 1009.6 1.4
24/06:00pm 14.9 13.0 14.3 96 0.3 NNE 17 30 9 16 1009.7 1009.7 1.4
24/05:30pm 14.9 12.7 14.3 96 0.3 N 19 32 10 17 1010.5 1010.5 1.2
24/05:00pm 14.8 13.2 14.0 95 0.5 N 15 28 8 15 1011.1 1011.1 1.0
24/04:30pm 14.8 12.8 14.0 95 0.5 NNE 17 26 9 14 1011.4 1011.4 0.6
24/04:00pm 14.6 13.2 13.5 93 0.6 NE 13 22 7 12 1011.8 1011.8 0.0
24/03:30pm 14.9 13.1 13.4 91 0.8 NNE 15 30 8 16 1012.5 1012.5 0.0
24/03:00pm 14.7 13.6 13.2 91 0.8 NE 11 20 6 11 1012.9 1012.9 0.0
24/02:30pm 14.9 13.5 13.3 90 0.9 NNE 13 20 7 11 1013.6 1013.6 0.0
24/02:00pm 14.8 13.0 13.2 90 0.9 NNE 15 28 8 15 1014.3 1014.3 0.0
24/01:30pm 14.6 12.0 13.1 91 0.8 NNE 19 30 10 16 1015.0 1015.0 0.0
24/01:00pm 14.7 12.8 12.9 89 1.0 NNE 15 24 8 13 1015.6 1015.6 0.0
24/12:30pm 14.8 12.1 13.0 89 1.0 NNE 19 30 10 16 1015.9 1015.9 0.0
24/12:00pm 14.5 12.1 12.7 89 1.0 NNE 17 30 9 16 1016.5 1016.5 0.0
24/11:30am 14.0 10.9 12.2 89 1.0 NNE 20 30 11 16 1017.0 1017.0 0.0
24/11:00am 13.7 11.2 12.3 91 0.8 NNE 17 28 9 15 1017.7 1017.7 0.0
24/10:30am 13.3 10.1 12.0 92 0.7 NNE 20 33 11 18 1018.1 1018.1 0.0
24/10:00am 13.8 10.0 11.1 84 1.4 NE 22 33 12 18 1018.5 1018.5 0.0
24/09:30am 13.6 10.2 11.1 85 1.3 NE 20 32 11 17 1019.0 1019.0 0.0
24/09:00am 13.0 9.6 11.1 88 1.0 NE 20 33 11 18 1019.6 1019.7 0.0
24/08:30am 13.2 9.5 10.0 81 1.7 NNE 20 33 11 18 1020.4 1020.4 0.0
24/08:00am 13.0 9.1 9.6 80 1.7 NE 20 33 11 18 1020.5 1020.5 0.0
24/07:30am 12.9 8.9 9.2 78 1.9 NE 20 32 11 17 1020.7 1020.7 0.0
24/07:00am 12.8 8.8 9.1 78 1.9 NE 20 32 11 17 1020.9 1020.9 0.0
24/06:30am 12.5 8.3 8.4 76 2.0 NE 20 33 11 18 1021.1 1021.1 0.0
24/06:00am 12.3 8.2 8.0 75 2.1 NE 19 30 10 16 1021.3 1021.3 0.0
24/05:30am 12.0 7.8 7.5 74 2.2 NE 19 28 10 15 1021.5 1021.5 0.0
24/05:00am 11.8 7.5 6.9 72 2.3 NE 19 26 10 14 1021.8 1021.8 0.0
24/04:30am 12.0 7.5 6.9 71 2.4 NE 20 28 11 15 1022.1 1022.1 0.0
24/04:00am 12.0 7.7 6.9 71 2.4 NE 19 26 10 14 1022.5 1022.5 0.0
24/03:30am 11.8 7.7 6.1 68 2.7 NNE 17 30 9 16 1022.9 1022.9 0.0
24/03:00am 11.8 7.8 6.5 70 2.5 NE 17 24 9 13 1023.1 1023.1 0.0
24/02:30am 11.8 7.8 6.5 70 2.5 NE 17 24 9 13 1023.4 1023.4 0.0
24/02:00am 11.7 8.9 6.8 72 2.3 NNE 11 22 6 12 1024.0 1024.0 0.0
24/01:30am 11.6 7.9 6.1 69 2.6 NE 15 26 8 14 1024.2 1024.2 0.0
24/01:00am 11.3 7.1 5.8 69 2.5 NE 17 24 9 13 1024.5 1024.5 0.0
24/12:30am 11.0 7.7 6.2 72 2.2 NE 13 20 7 11 1024.7 1024.7 0.0
24/12:00am 11.2 7.8 5.7 69 2.5 NNE 13 24 7 13 1025.4 1025.4 0.0
 
Date/Time
EDT
Temp
°C
App
Temp
°C
Dew
Point
Rel
Hum
%
Delta-T
°C
Wind Press
QNH
hPa
Press
MSL
hPa
Rain
since 9 am
mm
Dir
 
Spd
km/h
Gust
km/h
Spd
kts
Gust
kts
23/11:30pm 11.2 7.8 6.1 71 2.4 NE 13 20 7 11 1025.6 1025.6 0.0
23/11:00pm 10.8 6.9 5.3 69 2.5 ENE 15 20 8 11 1026.0 1026.0 0.0
23/10:30pm 10.9 7.9 5.9 71 2.3 ENE 11 19 6 10 1026.0 1026.0 0.0
23/10:00pm 11.0 7.4 4.9 66 2.8 ENE 13 19 7 10 1026.5 1026.5 0.0
23/09:30pm 11.1 8.0 5.4 68 2.6 E 11 17 6 9 1026.7 1026.7 0.0
23/09:00pm 11.1 7.3 5.6 69 2.5 ESE 15 19 8 10 1026.5 1026.5 0.0
23/08:30pm 11.0 7.5 5.5 69 2.5 ESE 13 19 7 10 1026.3 1026.3 0.0
23/08:00pm 11.0 7.5 5.5 69 2.5 ESE 13 19 7 10 1026.0 1026.0 0.0
23/07:30pm 11.2 7.7 5.3 67 2.7 ESE 13 19 7 10 1025.8 1025.8 0.0
23/07:00pm 12.1 8.6 5.3 63 3.1 E 13 17 7 9 1025.6 1025.6 0.0
23/06:30pm 13.9 10.1 5.8 58 3.8 ESE 15 20 8 11 1025.5 1025.5 0.0
23/06:00pm 14.7 11.7 6.0 56 4.2 SE 11 17 6 9 1025.4 1025.4 0.0
23/05:30pm 15.4 11.9 5.6 52 4.7 SE 13 17 7 9 1025.5 1025.5 0.0
23/05:00pm 16.3 12.1 5.6 49 5.1 SE 17 22 9 12 1025.4 1025.4 0.0
23/04:30pm 16.9 12.8 6.1 49 5.3 SE 17 22 9 12 1025.3 1025.3 0.0
23/04:00pm 17.3 13.2 6.2 48 5.4 SE 17 22 9 12 1025.4 1025.4 0.0
23/03:30pm 16.9 13.4 5.5 47 5.5 SSE 13 19 7 10 1025.5 1025.5 0.0
23/03:00pm 17.9 13.4 6.1 46 5.8 SE 19 26 10 14 1025.5 1025.5 0.0
23/02:30pm 17.1 12.3 5.7 47 5.5 SE 20 26 11 14 1025.6 1025.6 0.0
23/02:00pm 17.6 12.5 6.2 47 5.6 SE 22 30 12 16 1025.5 1025.5 0.0
23/01:30pm 17.4 12.4 6.6 49 5.4 SE 22 30 12 16 1025.4 1025.4 0.0
23/01:00pm 17.5 12.2 6.7 49 5.3 SE 24 33 13 18 1025.2 1025.2 0.0
23/12:30pm 17.1 11.0 6.6 50 5.2 SE 28 35 15 19 1025.1 1025.1 0.0
23/12:00pm 16.9 10.7 6.1 49 5.2 SE 28 35 15 19 1025.2 1025.2 0.0
23/11:30am 16.5 10.6 5.8 49 5.2 SE 26 33 14 18 1025.4 1025.4 0.0
23/11:00am 16.6 11.1 5.9 49 5.2 SE 24 32 13 17 1025.6 1025.6 0.0
23/10:30am 16.2 10.8 6.3 52 4.8 SSE 24 32 13 17 1025.6 1025.6 0.0
23/10:00am 15.7 10.5 5.6 51 4.8 SSE 22 32 12 17 1025.7 1025.7 0.0
23/09:30am 13.4 9.1 5.1 57 3.9 S 17 28 9 15 1025.5 1025.5 0.0
23/09:00am 14.1 9.9 5.5 56 4.0 S 17 26 9 14 1025.1 1025.1 0.0
23/08:30am 13.9 9.8 6.3 60 3.6 SSE 17 30 9 16 1024.9 1024.9 0.0
23/08:00am 12.0 7.8 5.6 65 3.0 S 17 26 9 14 1024.5 1024.5 0.0
23/07:30am 11.8 7.9 5.4 65 3.0 S 15 22 8 12 1024.1 1024.1 0.0
23/07:00am 11.0 8.3 5.7 70 2.4 S 9 17 5 9 1023.6 1023.6 0.0
23/06:30am 10.6 6.7 5.4 70 2.4 S 15 24 8 13 1023.1 1023.1 0.0
23/06:00am 11.3 7.7 6.6 73 2.2 S 15 28 8 15 1022.7 1022.7 0.0
23/05:30am 11.4 7.1 6.9 74 2.1 S 19 30 10 16 1022.3 1022.3 0.0
23/05:00am 11.5 8.4 7.4 76 2.0 S 13 26 7 14 1021.8 1021.8 0.0
23/04:30am 11.8 7.9 8.5 80 1.6 S 19 30 10 16 1021.2 1021.2 0.0
23/04:00am 12.1 8.4 9.3 83 1.4 S 19 37 10 20 1020.8 1020.8 0.0
23/03:30am 12.5 8.9 10.0 85 1.3 S 19 28 10 15 1020.3 1020.3 0.0
23/03:00am 13.1 9.4 10.3 83 1.4 S 20 32 11 17 1020.2 1020.2 0.0
23/02:30am 13.3 9.6 10.3 82 1.6 S 20 37 11 20 1019.8 1019.9 0.0
23/02:00am 13.3 9.8 10.3 82 1.6 S 19 37 10 20 1020.0 1020.0 0.0
23/01:30am 13.4 10.0 10.6 83 1.5 S 19 32 10 17 1019.8 1019.9 0.0
23/01:00am 13.5 11.7 11.0 85 1.3 S 11 30 6 16 1019.6 1019.7 0.0
23/12:30am 13.6 11.9 11.3 86 1.2 S 11 24 6 13 1019.1 1019.1 0.0
23/12:00am 13.6 12.8 11.1 85 1.3 WSW 6 15 3 8 1018.8 1018.8 0.0
 
Date/Time
EDT
Temp
°C
App
Temp
°C
Dew
Point
Rel
Hum
%
Delta-T
°C
Wind Press
QNH
hPa
Press
MSL
hPa
Rain
since 9 am
mm
Dir
 
Spd
km/h
Gust
km/h
Spd
kts
Gust
kts
22/11:30pm 13.4 11.6 10.9 85 1.3 SSW 11 26 6 14 1018.5 1018.5 0.0
22/11:00pm 13.4 11.6 10.8 84 1.4 S 11 22 6 12 1018.0 1018.0 0.0
22/10:30pm 14.0 11.4 10.8 81 1.7 SSW 15 22 8 12 1017.7 1017.7 0.0
22/10:00pm 14.6 11.5 11.6 82 1.6 S 19 30 10 16 1016.9 1016.9 0.0
22/09:30pm 15.4 10.2 11.6 78 2.1 SSW 30 46 16 25 1015.6 1015.6 0.0
22/09:23pm 16.4 11.5 11.3 72 2.8 SSW 28 46 15 25 1015.4 1015.4 0.0
22/09:00pm 14.4 13.9 12.1 86 1.2 SW 6 20 3 11 1015.0 1015.0 0.0
22/08:30pm 14.5 13.9 12.2 86 1.3 SSE 7 11 4 6 1014.0 1014.0 0.0
22/08:00pm 14.7 14.2 12.2 85 1.4 S 6 11 3 6 1013.6 1013.6 0.0
22/07:30pm 14.7 14.1 12.2 85 1.4 SSE 7 11 4 6 1013.2 1013.2 0.0
22/07:00pm 15.1 14.4 12.1 82 1.6 S 7 11 4 6 1013.3 1013.3 0.0
22/06:30pm 15.6 14.9 12.0 79 2.0 S 7 11 4 6 1013.7 1013.7 0.0
22/06:00pm 17.4 17.6 11.9 70 3.0 SSW 2 11 1 6 1013.8 1013.8 0.0
22/05:30pm 19.3 19.2 12.1 63 4.0 NE 4 6 2 3 1013.8 1013.8 0.0
22/05:00pm 20.4 19.0 12.1 59 4.6 NE 11 17 6 9 1013.6 1013.6 0.0
22/04:30pm 21.8 20.1 12.6 56 5.2 NNE 13 20 7 11 1013.7 1013.7 0.0
22/04:00pm 21.2 19.3 12.9 59 4.7 NNE 15 30 8 16 1013.5 1013.5 0.0
22/03:30pm 20.7 17.7 12.4 59 4.7 NNE 20 32 11 17 1013.6 1013.6 0.0
22/03:00pm 18.8 17.0 12.1 65 3.7 NE 13 22 7 12 1014.1 1014.1 0.0

Other Formats:

Comma delimited format used in spreadsheet applications
http://www.bom.gov.au/fwo/IDT60801/IDT60801.94987.axf

JavaScript Object Notation format (JSON) in row-major order
http://www.bom.gov.au/fwo/IDT60801/IDT60801.94987.json